createdAt,value
2018-03-02T00:00:10.334Z,95.10
2018-03-02T00:02:38.465Z,94.70
2018-03-02T00:05:06.621Z,94.70
2018-03-02T00:07:34.756Z,94.70
2018-03-02T00:10:02.967Z,94.60
2018-03-02T00:12:31.070Z,94.50
2018-03-02T00:14:59.223Z,94.50
2018-03-02T00:17:27.359Z,94.50
2018-03-02T00:19:55.522Z,94.60
2018-03-02T00:22:23.662Z,94.90
2018-03-02T00:24:51.827Z,94.90
2018-03-02T00:27:20.731Z,95.00
2018-03-02T00:29:48.889Z,95.00
2018-03-02T00:32:17.796Z,95.10
2018-03-02T00:34:45.954Z,95.00
2018-03-02T00:37:14.862Z,95.60
2018-03-02T00:39:43.021Z,95.20
2018-03-02T00:42:11.927Z,95.20
2018-03-02T00:44:40.109Z,95.10
2018-03-02T00:47:08.258Z,95.20
2018-03-02T00:49:36.417Z,95.50
2018-03-02T00:52:04.554Z,95.10
2018-03-02T00:54:32.718Z,95.00
2018-03-02T00:57:00.865Z,94.80
2018-03-02T00:59:29.030Z,94.80
2018-03-02T01:01:57.170Z,94.50
2018-03-02T01:04:25.333Z,94.60
2018-03-02T01:06:53.473Z,94.30
2018-03-02T01:09:21.626Z,94.70
2018-03-02T01:11:49.756Z,94.80
2018-03-02T01:14:17.922Z,94.80
2018-03-02T01:16:46.056Z,94.90
2018-03-02T01:19:14.222Z,94.70
2018-03-02T01:21:42.351Z,94.60
2018-03-02T01:24:10.512Z,94.40
2018-03-02T01:26:38.653Z,94.90
2018-03-02T01:29:06.805Z,94.90
2018-03-02T01:31:34.942Z,94.80
2018-03-02T01:34:03.112Z,95.00
2018-03-02T01:36:31.246Z,95.10
2018-03-02T01:38:59.416Z,95.10
2018-03-02T01:41:27.553Z,94.80
2018-03-02T01:43:55.695Z,95.20
2018-03-02T01:46:23.858Z,95.20
2018-03-02T01:48:51.995Z,94.80
2018-03-02T01:51:31.912Z,94.80
2018-03-02T01:54:00.051Z,95.30
2018-03-02T01:56:28.218Z,95.50
2018-03-02T01:58:56.352Z,95.50
2018-03-02T02:01:24.518Z,95.90
2018-03-02T02:03:52.645Z,95.70
2018-03-02T02:06:20.802Z,95.80
2018-03-02T02:08:48.937Z,95.90
2018-03-02T02:11:17.093Z,95.60
2018-03-02T02:13:45.229Z,95.80
2018-03-02T02:16:13.399Z,95.90
2018-03-02T02:18:41.536Z,95.90
2018-03-02T02:21:09.702Z,95.90
2018-03-02T02:23:37.837Z,95.90
2018-03-02T02:26:05.998Z,96.10
2018-03-02T02:28:34.124Z,96.20
2018-03-02T02:31:02.287Z,95.60
2018-03-02T02:33:30.419Z,96.10
2018-03-02T02:35:58.584Z,96.10
2018-03-02T02:38:26.723Z,95.70
2018-03-02T02:40:54.885Z,96.30
2018-03-02T02:43:23.027Z,96.40
2018-03-02T02:45:51.187Z,95.90
2018-03-02T02:48:19.332Z,96.50
2018-03-02T02:50:48.267Z,96.70
2018-03-02T02:53:16.404Z,96.70
2018-03-02T02:55:45.337Z,96.90
2018-03-02T02:58:13.469Z,96.90
2018-03-02T03:00:42.396Z,97.10
2018-03-02T03:03:10.538Z,96.60
2018-03-02T03:05:39.477Z,97.20
2018-03-02T03:08:07.614Z,97.20
2018-03-02T03:10:35.770Z,97.30
2018-03-02T03:13:03.910Z,97.70
2018-03-02T03:15:32.078Z,97.60
2018-03-02T03:18:00.222Z,97.70
2018-03-02T03:20:28.390Z,97.60
2018-03-02T03:22:56.526Z,97.50
2018-03-02T03:25:24.694Z,97.90
2018-03-02T03:27:52.837Z,97.30
2018-03-02T03:30:21.002Z,97.70
2018-03-02T03:32:49.146Z,97.20
2018-03-02T03:35:17.314Z,97.20
2018-03-02T03:37:46.215Z,97.10
2018-03-02T03:40:14.385Z,97.00
2018-03-02T03:42:42.526Z,97.00
2018-03-02T03:45:11.481Z,96.80
2018-03-02T03:47:39.624Z,96.80
2018-03-02T03:50:07.794Z,96.80
2018-03-02T03:52:35.921Z,96.80
2018-03-02T03:55:04.090Z,96.60
2018-03-02T03:57:32.234Z,96.40
2018-03-02T04:00:00.394Z,96.60
2018-03-02T04:02:28.532Z,96.30
2018-03-02T04:04:56.696Z,95.90
2018-03-02T04:07:24.834Z,95.70
2018-03-02T04:09:53.011Z,96.20
2018-03-02T04:12:21.140Z,95.90
2018-03-02T04:14:50.092Z,95.80
2018-03-02T04:17:18.233Z,95.70
2018-03-02T04:19:46.370Z,95.60
2018-03-02T04:22:14.533Z,95.20
2018-03-02T04:24:42.677Z,95.80
2018-03-02T04:27:10.833Z,95.30
2018-03-02T04:29:38.983Z,95.80
2018-03-02T04:32:07.908Z,95.80
2018-03-02T04:34:36.050Z,95.80
2018-03-02T04:37:04.217Z,95.90
2018-03-02T04:39:32.378Z,95.90
2018-03-02T04:42:01.274Z,95.90
2018-03-02T04:44:29.438Z,95.50
2018-03-02T04:46:57.574Z,95.90
2018-03-02T04:49:25.735Z,95.90
2018-03-02T04:51:53.888Z,95.90
2018-03-02T04:54:22.052Z,96.00
2018-03-02T04:56:50.959Z,96.50
2018-03-02T04:59:19.128Z,95.50
2018-03-02T05:01:47.271Z,95.60
2018-03-02T05:04:15.440Z,96.00
2018-03-02T05:06:43.578Z,96.00
2018-03-02T05:09:11.739Z,96.20
2018-03-02T05:11:39.868Z,95.60
2018-03-02T05:14:08.037Z,96.10
2018-03-02T05:16:36.183Z,96.10
2018-03-02T05:19:04.345Z,96.00
2018-03-02T05:21:32.490Z,95.90
2018-03-02T05:24:00.663Z,96.10
2018-03-02T05:26:28.801Z,95.60
2018-03-02T05:28:56.992Z,96.20
2018-03-02T05:31:25.214Z,96.40
2018-03-02T05:33:53.341Z,96.10
2018-03-02T05:36:22.274Z,96.10
2018-03-02T05:38:50.415Z,96.00
2018-03-02T05:41:18.569Z,96.00
2018-03-02T05:43:46.706Z,96.10
2018-03-02T05:46:14.861Z,96.10
2018-03-02T05:48:43.004Z,96.00
2018-03-02T05:51:11.924Z,96.20
2018-03-02T05:53:40.067Z,96.10
2018-03-02T05:56:08.991Z,96.40
2018-03-02T05:58:37.132Z,96.40
2018-03-02T06:01:06.065Z,96.50
2018-03-02T06:03:34.203Z,96.10
2018-03-02T06:06:02.402Z,96.60
2018-03-02T06:08:30.544Z,96.60
2018-03-02T06:10:58.705Z,96.70
2018-03-02T06:13:27.653Z,96.50
2018-03-02T06:15:55.796Z,96.40
2018-03-02T06:18:23.943Z,96.40
2018-03-02T06:20:52.110Z,96.30
2018-03-02T06:23:20.272Z,96.40
2018-03-02T06:25:48.433Z,96.60
2018-03-02T06:28:16.575Z,96.60
2018-03-02T06:30:44.741Z,96.60
2018-03-02T06:33:12.887Z,96.70
2018-03-02T06:35:41.810Z,96.60
2018-03-02T06:38:09.951Z,96.30
2018-03-02T06:40:38.885Z,96.70
2018-03-02T06:43:07.029Z,96.70
2018-03-02T06:45:35.968Z,97.00
2018-03-02T06:48:04.114Z,96.60
2018-03-02T06:50:32.254Z,97.40
2018-03-02T06:53:00.429Z,97.20
2018-03-02T06:55:28.582Z,97.40
2018-03-02T06:57:56.740Z,97.60
2018-03-02T07:00:24.881Z,98.10
2018-03-02T07:02:53.053Z,98.80
2018-03-02T07:05:21.192Z,99.10
2018-03-02T07:07:50.129Z,99.90
2018-03-02T07:10:18.287Z,99.90
2018-03-02T07:12:46.447Z,99.30
2018-03-02T07:15:14.580Z,99.00
2018-03-02T07:17:42.749Z,98.90
2018-03-02T07:20:10.890Z,98.80
2018-03-02T07:22:39.082Z,98.80
2018-03-02T07:25:07.224Z,98.90
2018-03-02T07:27:35.441Z,98.40
2018-03-02T07:30:03.559Z,97.90
2018-03-02T07:32:31.728Z,97.50
2018-03-02T07:34:59.866Z,97.20
2018-03-02T07:37:28.033Z,96.90
2018-03-02T07:39:56.179Z,96.50
2018-03-02T07:42:24.395Z,96.20
2018-03-02T07:44:52.538Z,96.00
2018-03-02T07:47:20.697Z,95.90
2018-03-02T07:49:48.840Z,95.50
2018-03-02T07:52:17.017Z,95.40
2018-03-02T07:54:45.919Z,94.90
2018-03-02T07:57:14.079Z,95.00
2018-03-02T07:59:42.984Z,94.90
2018-03-02T08:02:11.177Z,94.80
2018-03-02T08:04:39.318Z,94.60
2018-03-02T08:07:07.479Z,94.50
2018-03-02T08:09:35.611Z,94.40
2018-03-02T08:12:03.765Z,94.00
2018-03-02T08:14:31.909Z,93.90
2018-03-02T08:17:00.844Z,93.00
2018-03-02T08:19:28.983Z,93.30
2018-03-02T08:21:57.139Z,92.70
2018-03-02T08:24:25.337Z,92.50
2018-03-02T08:26:53.504Z,92.40
2018-03-02T08:29:21.660Z,92.50
2018-03-02T08:31:49.793Z,92.70
2018-03-02T08:34:17.961Z,92.20
2018-03-02T08:36:46.102Z,92.00
2018-03-02T08:39:15.023Z,91.90
2018-03-02T08:41:43.189Z,91.90
2018-03-02T08:44:11.356Z,91.40
2018-03-02T08:46:39.489Z,90.90
2018-03-02T08:49:07.645Z,90.50
2018-03-02T08:51:35.795Z,90.40
2018-03-02T08:54:03.954Z,90.20
2018-03-02T08:56:32.086Z,90.10
2018-03-02T08:59:00.241Z,90.10
2018-03-02T09:01:28.380Z,90.00
2018-03-02T09:03:56.538Z,89.30
2018-03-02T09:06:24.678Z,88.70
2018-03-02T09:08:52.834Z,88.50
2018-03-02T09:11:20.968Z,88.80
2018-03-02T09:13:49.135Z,87.50
2018-03-02T09:16:17.275Z,87.50
2018-03-02T09:18:45.428Z,86.70
2018-03-02T09:21:13.562Z,85.20
2018-03-02T09:23:41.701Z,85.30
2018-03-02T09:26:09.862Z,84.30
2018-03-02T09:28:38.001Z,83.60
2018-03-02T09:31:06.161Z,83.70
2018-03-02T09:33:34.304Z,82.20
2018-03-02T09:36:02.470Z,81.90
2018-03-02T09:38:31.370Z,80.20
2018-03-02T09:40:59.525Z,79.80
2018-03-02T09:43:27.660Z,78.40
2018-03-02T09:45:55.818Z,79.30
2018-03-02T09:48:23.953Z,78.00
2018-03-02T09:50:52.114Z,78.10
2018-03-02T09:53:20.273Z,78.60
2018-03-02T09:55:48.433Z,78.90
2018-03-02T09:58:16.569Z,77.70
2018-03-02T10:00:44.731Z,77.60
2018-03-02T10:03:13.980Z,76.60
2018-03-02T10:05:42.146Z,76.60
2018-03-02T10:08:10.313Z,77.70
2018-03-02T10:10:38.473Z,77.00
2018-03-02T10:13:06.610Z,77.70
2018-03-02T10:15:35.536Z,78.70
2018-03-02T10:18:03.726Z,78.40
2018-03-02T10:20:32.018Z,79.30
2018-03-02T10:23:00.198Z,78.60
2018-03-02T10:25:28.374Z,78.40
2018-03-02T10:27:56.537Z,79.00
2018-03-02T10:30:24.712Z,77.70
2018-03-02T10:32:52.850Z,79.00
2018-03-02T10:35:20.998Z,79.60
2018-03-02T10:37:49.152Z,79.30
2018-03-02T10:40:17.305Z,78.90
2018-03-02T10:42:45.498Z,78.70
2018-03-02T10:45:13.643Z,78.90
2018-03-02T10:47:41.802Z,77.40
2018-03-02T10:50:09.937Z,78.20
2018-03-02T10:52:38.879Z,78.50
2018-03-02T10:55:07.028Z,78.70
2018-03-02T10:57:35.196Z,78.10
2018-03-02T11:00:03.347Z,79.10
2018-03-02T11:02:32.281Z,79.80
2018-03-02T11:05:06.122Z,79.70
2018-03-02T11:07:34.293Z,79.60
2018-03-02T11:10:02.481Z,79.80
2018-03-02T11:12:30.641Z,80.30
2018-03-02T11:14:58.782Z,79.80
2018-03-02T11:17:26.947Z,79.30
2018-03-02T11:19:55.081Z,78.90
2018-03-02T11:22:23.241Z,79.00
2018-03-02T11:24:51.391Z,79.20
2018-03-02T11:27:19.584Z,79.30
2018-03-02T11:29:47.721Z,78.00
2018-03-02T11:32:15.890Z,78.60
2018-03-02T11:34:44.034Z,78.60
2018-03-02T11:37:12.962Z,79.00
2018-03-02T11:39:41.101Z,78.90
2018-03-02T11:42:10.412Z,78.20
2018-03-02T11:44:38.545Z,78.30
2018-03-02T11:47:06.721Z,78.30
2018-03-02T11:49:34.877Z,78.60
2018-03-02T11:52:03.047Z,79.20
2018-03-02T11:54:31.209Z,79.70
2018-03-02T11:56:59.347Z,79.60
2018-03-02T11:59:27.501Z,79.80
2018-03-02T12:01:55.676Z,80.00
2018-03-02T12:04:23.834Z,80.80
2018-03-02T12:06:51.975Z,79.90
2018-03-02T12:09:20.130Z,80.20
2018-03-02T12:11:48.270Z,80.20
2018-03-02T12:14:16.428Z,79.40
2018-03-02T12:16:44.578Z,80.00
2018-03-02T12:19:12.754Z,80.30
2018-03-02T12:21:40.885Z,80.20
2018-03-02T12:24:09.041Z,80.40
2018-03-02T12:26:37.188Z,80.20
2018-03-02T12:29:05.349Z,80.50
2018-03-02T12:31:33.502Z,80.60
2018-03-02T12:34:01.662Z,80.50
2018-03-02T12:36:29.797Z,80.70
2018-03-02T12:38:57.956Z,81.10
2018-03-02T12:41:26.096Z,80.90
2018-03-02T12:43:54.321Z,81.40
2018-03-02T12:46:22.452Z,81.80
2018-03-02T12:48:50.618Z,82.30
2018-03-02T12:51:18.755Z,82.10
2018-03-02T12:53:46.914Z,81.50
2018-03-02T12:56:15.042Z,81.60
2018-03-02T12:58:43.212Z,82.00
2018-03-02T13:01:11.349Z,81.40
2018-03-02T13:03:39.520Z,82.20
2018-03-02T13:06:08.423Z,82.70
2018-03-02T13:08:36.558Z,82.40
2018-03-02T13:11:04.721Z,83.20
2018-03-02T13:13:32.855Z,83.40
2018-03-02T13:16:01.016Z,82.80
2018-03-02T13:18:40.711Z,83.70
2018-03-02T13:21:08.861Z,83.30
2018-03-02T13:23:37.012Z,82.80
2018-03-02T13:26:05.169Z,82.10
2018-03-02T13:28:45.166Z,82.20
2018-03-02T13:31:13.341Z,82.60
2018-03-02T13:36:43.301Z,82.60
2018-03-02T13:39:11.433Z,83.40
2018-03-02T13:41:51.432Z,83.00
2018-03-02T13:44:19.571Z,82.80
2018-03-02T13:46:47.725Z,83.80
2018-03-02T13:49:27.667Z,83.00
2018-03-02T13:51:55.854Z,83.10
2018-03-02T13:54:23.990Z,83.50
2018-03-02T13:57:03.730Z,82.90
2018-03-02T13:59:31.870Z,82.50
2018-03-02T14:02:00.026Z,82.40
2018-03-02T14:04:39.857Z,81.90
2018-03-02T14:07:08.010Z,82.00
2018-03-02T14:09:36.907Z,82.80
2018-03-02T14:12:05.844Z,83.20
2018-03-02T14:14:33.990Z,83.20
2018-03-02T14:17:02.162Z,82.80
2018-03-02T14:19:30.307Z,83.20
2018-03-02T14:21:58.485Z,82.90
2018-03-02T14:24:27.394Z,83.00
2018-03-02T14:26:55.569Z,83.00
2018-03-02T14:29:23.717Z,82.50
2018-03-02T14:31:51.868Z,82.10
2018-03-02T14:34:20.024Z,81.90
2018-03-02T14:36:48.180Z,82.30
2018-03-02T14:39:16.416Z,82.00
2018-03-02T14:41:44.589Z,81.30
2018-03-02T14:44:13.498Z,81.90
2018-03-02T14:46:41.658Z,81.50
2018-03-02T14:49:10.561Z,81.70
2018-03-02T14:51:38.734Z,81.50
2018-03-02T14:54:07.773Z,81.40
2018-03-02T14:56:37.472Z,81.30
2018-03-02T14:59:07.989Z,81.50
2018-03-02T15:01:36.236Z,81.20
2018-03-02T15:04:04.482Z,82.30
2018-03-02T15:06:34.123Z,82.00
2018-03-02T15:09:02.392Z,82.70
2018-03-02T15:11:31.521Z,82.30
2018-03-02T15:13:59.711Z,82.10
2018-03-02T15:16:27.861Z,82.20
2018-03-02T15:18:56.083Z,82.20
2018-03-02T15:21:24.307Z,82.20
2018-03-02T15:23:52.491Z,82.80
2018-03-02T15:26:20.775Z,82.60
2018-03-02T15:28:48.958Z,82.40
2018-03-02T15:31:17.132Z,82.00
2018-03-02T15:33:45.273Z,82.00
2018-03-02T15:36:13.429Z,82.40
2018-03-02T15:38:41.610Z,82.60
2018-03-02T15:41:10.557Z,82.90
2018-03-02T15:43:38.899Z,82.70
2018-03-02T15:46:07.061Z,82.00
2018-03-02T15:48:35.378Z,81.70
2018-03-02T15:51:03.569Z,81.80
2018-03-02T15:53:31.753Z,82.40
2018-03-02T15:55:59.954Z,83.00
2018-03-02T15:58:28.926Z,82.90
2018-03-02T16:00:57.071Z,82.90
2018-03-02T16:03:25.293Z,83.20
2018-03-02T16:05:53.457Z,83.20
2018-03-02T16:08:22.370Z,84.10
2018-03-02T16:10:50.544Z,84.00
2018-03-02T16:13:18.694Z,83.90
2018-03-02T16:15:46.858Z,84.60
2018-03-02T16:18:15.006Z,84.50
2018-03-02T16:20:43.160Z,84.80
2018-03-02T16:23:11.308Z,85.50
2018-03-02T16:25:39.482Z,86.00
2018-03-02T16:28:07.659Z,86.70
2018-03-02T16:30:35.836Z,86.80
2018-03-02T16:33:03.988Z,87.70
2018-03-02T16:35:32.185Z,88.20
2018-03-02T16:38:00.372Z,89.00
2018-03-02T16:40:28.578Z,89.00
2018-03-02T16:42:56.758Z,88.60
2018-03-02T16:45:24.949Z,89.00
2018-03-02T16:47:53.163Z,89.70
2018-03-02T16:50:21.394Z,89.50
2018-03-02T16:52:49.702Z,90.00
2018-03-02T16:55:17.974Z,89.80
2018-03-02T16:57:46.926Z,90.30
2018-03-02T17:00:15.183Z,90.30
2018-03-02T17:02:43.336Z,90.40
2018-03-02T17:05:11.661Z,90.40
2018-03-02T17:07:39.817Z,90.60
2018-03-02T17:10:08.004Z,90.80
2018-03-02T17:12:36.185Z,90.70
2018-03-02T17:15:04.330Z,91.10
2018-03-02T17:17:32.510Z,91.10
2018-03-02T17:20:00.726Z,91.10
2018-03-02T17:22:28.945Z,91.10
2018-03-02T17:24:57.150Z,91.30
2018-03-02T17:27:25.439Z,91.20
2018-03-02T17:29:53.637Z,91.20
2018-03-02T17:32:22.250Z,91.50
2018-03-02T17:34:50.493Z,91.50
2018-03-02T17:37:19.078Z,91.60
2018-03-02T17:39:47.389Z,91.80
2018-03-02T17:42:15.650Z,91.90
2018-03-02T17:44:43.908Z,92.00
2018-03-02T17:47:12.140Z,92.20
2018-03-02T17:49:40.361Z,92.50
2018-03-02T17:52:08.588Z,92.50
2018-03-02T17:54:36.724Z,92.70
2018-03-02T17:57:04.956Z,92.70
2018-03-02T17:59:34.930Z,92.70
2018-03-02T18:02:04.195Z,92.70
2018-03-02T18:04:32.468Z,92.90
2018-03-02T18:07:00.687Z,92.90
2018-03-02T18:09:28.978Z,92.70
2018-03-02T18:11:57.162Z,93.20
2018-03-02T18:14:25.727Z,93.40
2018-03-02T18:16:54.454Z,93.40
2018-03-02T18:19:22.738Z,93.60
2018-03-02T18:21:51.631Z,93.70
2018-03-02T18:24:20.086Z,93.70
2018-03-02T18:26:48.348Z,93.70
2018-03-02T18:29:17.499Z,93.50
2018-03-02T18:31:47.351Z,93.70
2018-03-02T18:34:17.715Z,93.90
2018-03-02T18:36:47.644Z,94.00
2018-03-02T18:39:17.480Z,93.80
2018-03-02T18:41:46.360Z,94.00
2018-03-02T18:44:15.356Z,94.00
2018-03-02T18:46:43.955Z,94.20
2018-03-02T18:49:12.244Z,94.20
2018-03-02T18:51:41.025Z,94.20
2018-03-02T18:54:09.404Z,94.10
2018-03-02T18:56:38.126Z,94.20
2018-03-02T18:59:06.345Z,94.30
2018-03-02T19:01:34.569Z,94.40
2018-03-02T19:04:02.849Z,94.30
2018-03-02T19:06:31.368Z,94.40
2018-03-02T19:08:59.670Z,94.40
2018-03-02T19:11:27.837Z,94.50
2018-03-02T19:13:56.034Z,94.60
2018-03-02T19:16:24.172Z,94.80
2018-03-02T19:18:52.335Z,94.90
2018-03-02T19:21:20.483Z,95.00
2018-03-02T19:23:48.652Z,95.00
2018-03-02T19:26:16.860Z,94.90
2018-03-02T19:28:45.043Z,95.00
2018-03-02T19:31:13.206Z,94.90
2018-03-02T19:33:43.011Z,95.00
2018-03-02T19:36:11.382Z,95.00
2018-03-02T19:38:39.612Z,95.10
2018-03-02T19:41:09.219Z,94.80
2018-03-02T19:43:39.448Z,95.10
2018-03-02T19:46:08.804Z,95.30
2018-03-02T19:48:39.428Z,95.30
2018-03-02T19:51:07.671Z,95.20
2018-03-02T19:53:36.182Z,95.50
2018-03-02T19:56:04.523Z,95.60
2018-03-02T19:58:32.719Z,95.70
2018-03-02T20:01:01.128Z,95.90
2018-03-02T20:03:29.310Z,95.80
2018-03-02T20:05:57.526Z,95.70
2018-03-02T20:08:26.186Z,95.70
2018-03-02T20:10:54.362Z,95.90
2018-03-02T20:13:22.805Z,95.90
2018-03-02T20:15:51.057Z,96.00
2018-03-02T20:18:19.217Z,96.00
2018-03-02T20:20:47.442Z,96.30
2018-03-02T20:23:15.668Z,96.10
2018-03-02T20:25:43.842Z,96.10
2018-03-02T20:28:11.981Z,96.10
2018-03-02T20:30:40.145Z,96.50
2018-03-02T20:33:08.285Z,96.10
2018-03-02T20:35:36.439Z,96.00
2018-03-02T20:38:04.589Z,96.10
2018-03-02T20:40:32.746Z,96.20
2018-03-02T20:43:00.902Z,96.10
2018-03-02T20:45:29.091Z,96.10
2018-03-02T20:47:57.301Z,96.20
2018-03-02T20:50:25.477Z,96.20
2018-03-02T20:52:53.613Z,96.10
2018-03-02T20:55:22.361Z,95.90
2018-03-02T20:57:50.522Z,96.30
2018-03-02T21:00:18.661Z,96.20
2018-03-02T21:02:46.828Z,96.00
2018-03-02T21:05:15.129Z,95.90
2018-03-02T21:07:43.291Z,95.80
2018-03-02T21:10:11.426Z,95.80
2018-03-02T21:12:40.389Z,95.90
2018-03-02T21:15:08.609Z,95.90
2018-03-02T21:17:36.823Z,95.80
2018-03-02T21:20:04.961Z,95.80
2018-03-02T21:22:33.275Z,95.90
2018-03-02T21:25:01.411Z,95.80
2018-03-02T21:27:29.620Z,95.90
2018-03-02T21:29:58.532Z,96.10
2018-03-02T21:32:26.942Z,96.10
2018-03-02T21:34:55.077Z,95.70
2018-03-02T21:37:23.254Z,96.20
2018-03-02T21:39:51.385Z,95.70
2018-03-02T21:42:19.570Z,96.00
2018-03-02T21:44:47.719Z,96.20
2018-03-02T21:47:15.907Z,96.10
2018-03-02T21:49:44.053Z,96.00
2018-03-02T21:52:12.242Z,96.10
2018-03-02T21:54:40.413Z,96.20
2018-03-02T21:57:08.592Z,96.20
2018-03-02T21:59:36.746Z,96.30
2018-03-02T22:02:04.888Z,95.80
2018-03-02T22:04:33.066Z,96.40
2018-03-02T22:07:01.205Z,96.30
2018-03-02T22:09:29.393Z,96.30
2018-03-02T22:11:57.546Z,96.50
2018-03-02T22:14:25.725Z,96.50
2018-03-02T22:16:53.911Z,96.60
2018-03-02T22:19:22.081Z,96.60
2018-03-02T22:21:50.244Z,96.70
2018-03-02T22:24:18.928Z,97.10
2018-03-02T22:26:47.065Z,97.20
2018-03-02T22:29:15.223Z,97.00
2018-03-02T22:31:43.366Z,97.00
2018-03-02T22:34:11.538Z,97.00
2018-03-02T22:36:39.673Z,97.40
2018-03-02T22:39:07.846Z,97.40
2018-03-02T22:41:36.006Z,97.70
2018-03-02T22:44:04.169Z,97.60
2018-03-02T22:46:32.314Z,97.60
2018-03-02T22:49:00.486Z,97.60
2018-03-02T22:51:28.654Z,97.60
2018-03-02T22:53:56.814Z,97.80
2018-03-02T22:56:24.946Z,97.50
2018-03-02T22:58:53.882Z,97.40
2018-03-02T23:01:22.026Z,97.40
2018-03-02T23:03:50.193Z,97.20
2018-03-02T23:06:18.331Z,97.10
2018-03-02T23:08:46.498Z,96.50
2018-03-02T23:11:14.643Z,96.90
2018-03-02T23:13:42.820Z,96.80
2018-03-02T23:16:10.962Z,96.80
2018-03-02T23:18:39.103Z,96.80
2018-03-02T23:21:07.263Z,96.80
2018-03-02T23:23:35.403Z,96.40
2018-03-02T23:26:03.560Z,97.00
2018-03-02T23:28:31.706Z,97.20
2018-03-02T23:30:59.882Z,97.40
2018-03-02T23:33:28.025Z,97.70
2018-03-02T23:35:56.190Z,97.60
2018-03-02T23:38:24.328Z,97.10
2018-03-02T23:40:52.490Z,97.70
2018-03-02T23:43:20.642Z,97.80
2018-03-02T23:45:49.023Z,97.80
2018-03-02T23:48:17.160Z,97.80
2018-03-02T23:50:45.325Z,97.80
2018-03-02T23:53:13.465Z,97.80
2018-03-02T23:55:41.634Z,97.80
2018-03-02T23:58:09.790Z,97.60
